map of CJU home
CJU - Airport
Location
City:  Jeju, Republic of Korea (South Korea)
Near (Alt.):Cheju
Name:Jeju International Airport
ICAO:RKPC
IATA:CJU

Details
Type:Airport (Aerodrome, Airfield)
Use:Public/Civil, International (customs port of entry)
Latitude:33°30'41"N (33.511306)
Longitude:126°29'35"E (126.493028)
Datum:WGS 1984
Elevation:118 ft (36 m)
Variation:7.22°W (WMM2015 magnetic declination)
-0.08° annual change
Runways:2
Longest:9843 × 148 ft (3000 × 45 m), paved

Time
Time Zone:UTC+9
Local Time:

Weather
METAR:RKPC 201900Z 02008KT 330V050 9999 BKN030 OVC100 06/M06 Q1023 NOSIG
TAF:RKPC 201700Z 2018/2124 36010KT 7000 BKN030 OVC100 TN04/2021Z TX07/2106Z TN03/2121Z
BECMG 2102/2103 SCT030 BKN130
BECMG 2118/2119 18005KT

Related Locations
Nearby:
Farthest:CTQ: 12435 mi / 20012 km
Santa Vitória do Palmar [Aeropuerto Fernando Ferrari], RS, BR

Find:

   beyond  
but within

Other Information
Maps:
NOTAMs:
Links:
Sources:

  
flag of Republic of Korea (South Korea)   

Sectional Chart

Flight Planning
at skyvector.com

Satellite Image

Google Maps Satellite view

 

Copyright © 2004-2018 Karl L. Swartz. All rights reserved.
The Great Circle Mapper name and logo are trademarks of the Great Circle Mapper.
All other trademarks mentioned herein belong to their respective owners.
Please see credits for attibutions and further copyright information.

  Follow gcmap on Facebook Follow gcmap on Twitter Follow gcmap on Google+ GCmap on LinkedIn

hCard Microformat

Geo Microformat